sensor_id;sensor_type;location;lat;lon;timestamp;P1;durP1;ratioP1;P2;durP2;ratioP2
61741;SDS011;47650;49.848;9.620;2022-12-24T00:00:24;6.68;;;2.10;;
61741;SDS011;47650;49.848;9.620;2022-12-24T00:02:53;9.73;;;3.50;;
61741;SDS011;47650;49.848;9.620;2022-12-24T00:05:18;7.63;;;2.30;;
61741;SDS011;47650;49.848;9.620;2022-12-24T00:07:44;9.60;;;3.00;;
61741;SDS011;47650;49.848;9.620;2022-12-24T00:10:09;8.95;;;2.47;;
61741;SDS011;47650;49.848;9.620;2022-12-24T00:12:35;11.50;;;2.50;;
61741;SDS011;47650;49.848;9.620;2022-12-24T00:15:01;7.50;;;2.22;;
61741;SDS011;47650;49.848;9.620;2022-12-24T00:17:27;8.55;;;2.03;;
61741;SDS011;47650;49.848;9.620;2022-12-24T00:19:52;6.68;;;2.50;;
61741;SDS011;47650;49.848;9.620;2022-12-24T00:22:17;6.97;;;2.03;;
61741;SDS011;47650;49.848;9.620;2022-12-24T00:24:44;8.95;;;2.90;;
61741;SDS011;47650;49.848;9.620;2022-12-24T00:27:11;9.35;;;2.17;;
61741;SDS011;47650;49.848;9.620;2022-12-24T00:29:41;11.75;;;3.38;;
61741;SDS011;47650;49.848;9.620;2022-12-24T00:32:06;8.00;;;2.13;;
61741;SDS011;47650;49.848;9.620;2022-12-24T00:34:35;7.93;;;2.15;;
61741;SDS011;47650;49.848;9.620;2022-12-24T00:37:04;11.10;;;2.25;;
61741;SDS011;47650;49.848;9.620;2022-12-24T00:39:33;18.35;;;2.63;;
61741;SDS011;47650;49.848;9.620;2022-12-24T00:41:59;8.57;;;2.40;;
61741;SDS011;47650;49.848;9.620;2022-12-24T00:44:27;7.68;;;2.33;;
61741;SDS011;47650;49.848;9.620;2022-12-24T00:46:52;9.73;;;2.60;;
61741;SDS011;47650;49.848;9.620;2022-12-24T00:49:20;9.20;;;2.50;;
61741;SDS011;47650;49.848;9.620;2022-12-24T00:51:45;9.07;;;1.80;;
61741;SDS011;47650;49.848;9.620;2022-12-24T00:54:10;7.32;;;2.10;;
61741;SDS011;47650;49.848;9.620;2022-12-24T00:56:37;13.48;;;2.65;;
61741;SDS011;47650;49.848;9.620;2022-12-24T00:59:04;8.20;;;3.17;;
61741;SDS011;47650;49.848;9.620;2022-12-24T01:01:31;8.48;;;2.60;;
61741;SDS011;47650;49.848;9.620;2022-12-24T01:03:56;5.60;;;2.13;;
61741;SDS011;47650;49.848;9.620;2022-12-24T01:06:42;7.65;;;1.83;;
61741;SDS011;47650;49.848;9.620;2022-12-24T01:11:47;11.15;;;2.38;;
61741;SDS011;47650;49.848;9.620;2022-12-24T01:14:15;11.20;;;2.30;;
61741;SDS011;47650;49.848;9.620;2022-12-24T01:16:40;11.48;;;2.55;;
61741;SDS011;47650;49.848;9.620;2022-12-24T01:19:05;9.95;;;2.38;;
61741;SDS011;47650;49.848;9.620;2022-12-24T01:21:35;7.15;;;2.38;;
61741;SDS011;47650;49.848;9.620;2022-12-24T01:24:02;10.60;;;3.30;;
61741;SDS011;47650;49.848;9.620;2022-12-24T01:26:27;12.93;;;2.30;;
61741;SDS011;47650;49.848;9.620;2022-12-24T01:28:52;8.25;;;2.42;;
61741;SDS011;47650;49.848;9.620;2022-12-24T01:31:18;9.32;;;2.78;;
61741;SDS011;47650;49.848;9.620;2022-12-24T01:33:43;11.77;;;2.53;;
61741;SDS011;47650;49.848;9.620;2022-12-24T01:36:10;7.82;;;2.03;;
61741;SDS011;47650;49.848;9.620;2022-12-24T01:38:37;7.13;;;1.65;;
61741;SDS011;47650;49.848;9.620;2022-12-24T01:41:04;7.32;;;2.17;;
61741;SDS011;47650;49.848;9.620;2022-12-24T01:43:47;11.43;;;3.35;;
61741;SDS011;47650;49.848;9.620;2022-12-24T01:48:58;10.75;;;2.13;;
61741;SDS011;47650;49.848;9.620;2022-12-24T01:51:29;7.43;;;2.20;;
61741;SDS011;47650;49.848;9.620;2022-12-24T01:54:16;11.85;;;3.35;;
61741;SDS011;47650;49.848;9.620;2022-12-24T01:57:09;14.75;;;2.88;;
61741;SDS011;47650;49.848;9.620;2022-12-24T01:59:40;9.10;;;2.33;;
61741;SDS011;47650;49.848;9.620;2022-12-24T02:02:10;13.77;;;2.70;;
61741;SDS011;47650;49.848;9.620;2022-12-24T02:04:37;9.27;;;2.63;;
61741;SDS011;47650;49.848;9.620;2022-12-24T02:07:06;10.43;;;2.45;;
61741;SDS011;47650;49.848;9.620;2022-12-24T02:09:33;7.95;;;2.08;;
61741;SDS011;47650;49.848;9.620;2022-12-24T02:12:01;11.93;;;2.53;;
61741;SDS011;47650;49.848;9.620;2022-12-24T02:14:33;9.95;;;2.05;;
61741;SDS011;47650;49.848;9.620;2022-12-24T02:27:26;10.75;;;3.53;;
61741;SDS011;47650;49.848;9.620;2022-12-24T02:30:07;11.45;;;2.35;;
61741;SDS011;47650;49.848;9.620;2022-12-24T02:35:31;12.68;;;2.80;;
61741;SDS011;47650;49.848;9.620;2022-12-24T02:38:00;11.60;;;2.65;;
61741;SDS011;47650;49.848;9.620;2022-12-24T02:40:48;10.55;;;2.58;;
61741;SDS011;47650;49.848;9.620;2022-12-24T02:43:19;12.55;;;2.78;;
61741;SDS011;47650;49.848;9.620;2022-12-24T02:45:53;8.60;;;2.40;;
61741;SDS011;47650;49.848;9.620;2022-12-24T02:48:23;10.45;;;2.13;;
61741;SDS011;47650;49.848;9.620;2022-12-24T02:51:09;12.55;;;2.88;;
61741;SDS011;47650;49.848;9.620;2022-12-24T02:53:36;13.18;;;2.85;;
61741;SDS011;47650;49.848;9.620;2022-12-24T03:05:24;12.55;;;2.95;;
61741;SDS011;47650;49.848;9.620;2022-12-24T03:08:05;9.70;;;2.35;;
61741;SDS011;47650;49.848;9.620;2022-12-24T03:13:18;12.45;;;3.50;;
61741;SDS011;47650;49.848;9.620;2022-12-24T03:15:46;13.32;;;3.50;;
61741;SDS011;47650;49.848;9.620;2022-12-24T03:18:13;9.55;;;2.25;;
61741;SDS011;47650;49.848;9.620;2022-12-24T03:20:46;9.80;;;2.47;;
61741;SDS011;47650;49.848;9.620;2022-12-24T03:23:16;11.55;;;3.22;;
61741;SDS011;47650;49.848;9.620;2022-12-24T03:25:42;10.27;;;2.60;;
61741;SDS011;47650;49.848;9.620;2022-12-24T03:28:11;10.90;;;2.47;;
61741;SDS011;47650;49.848;9.620;2022-12-24T03:30:44;14.38;;;3.58;;
61741;SDS011;47650;49.848;9.620;2022-12-24T03:33:12;12.18;;;3.00;;
61741;SDS011;47650;49.848;9.620;2022-12-24T03:35:39;11.95;;;3.03;;
61741;SDS011;47650;49.848;9.620;2022-12-24T03:38:05;15.05;;;3.20;;
61741;SDS011;47650;49.848;9.620;2022-12-24T03:40:31;11.80;;;2.78;;
61741;SDS011;47650;49.848;9.620;2022-12-24T03:42:56;14.57;;;3.47;;
61741;SDS011;47650;49.848;9.620;2022-12-24T03:45:22;8.23;;;2.53;;
61741;SDS011;47650;49.848;9.620;2022-12-24T03:47:47;13.45;;;2.40;;
61741;SDS011;47650;49.848;9.620;2022-12-24T03:50:12;12.43;;;2.60;;
61741;SDS011;47650;49.848;9.620;2022-12-24T03:52:38;13.15;;;2.15;;
61741;SDS011;47650;49.848;9.620;2022-12-24T03:55:03;11.77;;;2.10;;
61741;SDS011;47650;49.848;9.620;2022-12-24T03:57:30;13.77;;;2.47;;
61741;SDS011;47650;49.848;9.620;2022-12-24T03:59:59;13.75;;;2.80;;
61741;SDS011;47650;49.848;9.620;2022-12-24T04:02:24;9.02;;;2.85;;
61741;SDS011;47650;49.848;9.620;2022-12-24T04:04:55;16.85;;;3.60;;
61741;SDS011;47650;49.848;9.620;2022-12-24T04:07:20;11.88;;;3.60;;
61741;SDS011;47650;49.848;9.620;2022-12-24T04:09:46;11.07;;;2.63;;
61741;SDS011;47650;49.848;9.620;2022-12-24T04:12:16;10.35;;;2.35;;
61741;SDS011;47650;49.848;9.620;2022-12-24T04:14:47;11.35;;;2.53;;
61741;SDS011;47650;49.848;9.620;2022-12-24T04:17:12;11.82;;;3.17;;
61741;SDS011;47650;49.848;9.620;2022-12-24T04:19:38;12.25;;;3.70;;
61741;SDS011;47650;49.848;9.620;2022-12-24T04:22:05;6.97;;;2.20;;
61741;SDS011;47650;49.848;9.620;2022-12-24T04:24:30;10.45;;;2.20;;
61741;SDS011;47650;49.848;9.620;2022-12-24T04:26:57;10.43;;;2.03;;
61741;SDS011;47650;49.848;9.620;2022-12-24T04:29:22;12.80;;;2.60;;
61741;SDS011;47650;49.848;9.620;2022-12-24T04:31:49;10.68;;;2.80;;
61741;SDS011;47650;49.848;9.620;2022-12-24T04:34:16;12.50;;;2.78;;
61741;SDS011;47650;49.848;9.620;2022-12-24T04:36:42;11.30;;;2.83;;
61741;SDS011;47650;49.848;9.620;2022-12-24T04:39:08;13.57;;;3.33;;
61741;SDS011;47650;49.848;9.620;2022-12-24T04:41:34;11.85;;;2.20;;
61741;SDS011;47650;49.848;9.620;2022-12-24T04:43:59;10.13;;;2.63;;
61741;SDS011;47650;49.848;9.620;2022-12-24T04:46:27;12.25;;;3.05;;
61741;SDS011;47650;49.848;9.620;2022-12-24T04:48:57;15.45;;;2.67;;
61741;SDS011;47650;49.848;9.620;2022-12-24T04:51:23;12.45;;;2.42;;
61741;SDS011;47650;49.848;9.620;2022-12-24T04:53:52;16.48;;;3.15;;
61741;SDS011;47650;49.848;9.620;2022-12-24T04:56:19;15.38;;;3.55;;
61741;SDS011;47650;49.848;9.620;2022-12-24T04:58:46;13.43;;;3.80;;
61741;SDS011;47650;49.848;9.620;2022-12-24T05:01:13;11.98;;;2.60;;
61741;SDS011;47650;49.848;9.620;2022-12-24T05:03:43;13.02;;;4.65;;
61741;SDS011;47650;49.848;9.620;2022-12-24T05:06:09;11.80;;;3.08;;
61741;SDS011;47650;49.848;9.620;2022-12-24T05:08:38;10.85;;;2.63;;
61741;SDS011;47650;49.848;9.620;2022-12-24T05:11:05;15.45;;;2.92;;
61741;SDS011;47650;49.848;9.620;2022-12-24T05:13:31;12.75;;;3.05;;
61741;SDS011;47650;49.848;9.620;2022-12-24T05:15:57;17.85;;;3.70;;
61741;SDS011;47650;49.848;9.620;2022-12-24T05:18:26;14.27;;;3.42;;
61741;SDS011;47650;49.848;9.620;2022-12-24T05:20:52;13.90;;;3.33;;
61741;SDS011;47650;49.848;9.620;2022-12-24T05:23:18;10.68;;;2.15;;
61741;SDS011;47650;49.848;9.620;2022-12-24T05:26:14;12.85;;;2.80;;
61741;SDS011;47650;49.848;9.620;2022-12-24T05:28:48;12.35;;;2.80;;
61741;SDS011;47650;49.848;9.620;2022-12-24T05:31:15;12.10;;;2.53;;
61741;SDS011;47650;49.848;9.620;2022-12-24T05:33:42;16.15;;;3.13;;
61741;SDS011;47650;49.848;9.620;2022-12-24T05:36:07;9.80;;;2.33;;
61741;SDS011;47650;49.848;9.620;2022-12-24T05:38:35;10.40;;;2.63;;
61741;SDS011;47650;49.848;9.620;2022-12-24T05:41:02;11.00;;;2.42;;
61741;SDS011;47650;49.848;9.620;2022-12-24T05:43:34;14.95;;;4.22;;
61741;SDS011;47650;49.848;9.620;2022-12-24T05:46:01;13.50;;;3.60;;
61741;SDS011;47650;49.848;9.620;2022-12-24T05:48:27;17.23;;;3.45;;
61741;SDS011;47650;49.848;9.620;2022-12-24T05:50:55;17.40;;;3.10;;
61741;SDS011;47650;49.848;9.620;2022-12-24T05:53:21;15.13;;;3.85;;
61741;SDS011;47650;49.848;9.620;2022-12-24T05:55:47;12.43;;;3.20;;
61741;SDS011;47650;49.848;9.620;2022-12-24T05:58:12;13.73;;;3.17;;
61741;SDS011;47650;49.848;9.620;2022-12-24T06:00:38;12.38;;;2.80;;
61741;SDS011;47650;49.848;9.620;2022-12-24T06:03:03;12.63;;;3.60;;
61741;SDS011;47650;49.848;9.620;2022-12-24T06:05:35;11.00;;;2.83;;
61741;SDS011;47650;49.848;9.620;2022-12-24T06:08:01;10.15;;;2.88;;
61741;SDS011;47650;49.848;9.620;2022-12-24T06:10:27;12.40;;;2.63;;
61741;SDS011;47650;49.848;9.620;2022-12-24T06:12:54;10.90;;;3.05;;
61741;SDS011;47650;49.848;9.620;2022-12-24T06:15:19;14.40;;;3.10;;
61741;SDS011;47650;49.848;9.620;2022-12-24T06:17:45;14.52;;;3.17;;
61741;SDS011;47650;49.848;9.620;2022-12-24T06:20:10;12.85;;;3.00;;
61741;SDS011;47650;49.848;9.620;2022-12-24T06:22:44;10.90;;;3.58;;
61741;SDS011;47650;49.848;9.620;2022-12-24T06:25:11;13.90;;;3.75;;
61741;SDS011;47650;49.848;9.620;2022-12-24T06:27:45;14.23;;;3.83;;
61741;SDS011;47650;49.848;9.620;2022-12-24T06:30:11;12.23;;;3.40;;
61741;SDS011;47650;49.848;9.620;2022-12-24T06:32:38;13.20;;;3.67;;
61741;SDS011;47650;49.848;9.620;2022-12-24T06:35:06;15.02;;;3.38;;
61741;SDS011;47650;49.848;9.620;2022-12-24T06:37:31;15.65;;;3.40;;
61741;SDS011;47650;49.848;9.620;2022-12-24T06:39:57;14.55;;;3.40;;
61741;SDS011;47650;49.848;9.620;2022-12-24T06:42:22;18.05;;;4.20;;
61741;SDS011;47650;49.848;9.620;2022-12-24T06:44:48;17.05;;;3.55;;
61741;SDS011;47650;49.848;9.620;2022-12-24T06:47:14;11.57;;;3.60;;
61741;SDS011;47650;49.848;9.620;2022-12-24T06:49:39;13.00;;;3.17;;
61741;SDS011;47650;49.848;9.620;2022-12-24T06:52:04;15.38;;;3.75;;
61741;SDS011;47650;49.848;9.620;2022-12-24T06:54:32;12.57;;;3.92;;
61741;SDS011;47650;49.848;9.620;2022-12-24T06:56:57;15.88;;;3.20;;
61741;SDS011;47650;49.848;9.620;2022-12-24T06:59:24;12.13;;;3.55;;
61741;SDS011;47650;49.848;9.620;2022-12-24T07:01:51;16.55;;;4.03;;
61741;SDS011;47650;49.848;9.620;2022-12-24T07:04:16;18.25;;;3.83;;
61741;SDS011;47650;49.848;9.620;2022-12-24T07:06:42;13.25;;;3.42;;
61741;SDS011;47650;49.848;9.620;2022-12-24T07:09:09;14.00;;;2.72;;
61741;SDS011;47650;49.848;9.620;2022-12-24T07:11:38;23.88;;;5.30;;
61741;SDS011;47650;49.848;9.620;2022-12-24T07:14:05;13.50;;;3.72;;
61741;SDS011;47650;49.848;9.620;2022-12-24T07:16:39;17.80;;;4.50;;
61741;SDS011;47650;49.848;9.620;2022-12-24T07:19:05;16.20;;;3.95;;
61741;SDS011;47650;49.848;9.620;2022-12-24T07:21:31;18.23;;;3.90;;
61741;SDS011;47650;49.848;9.620;2022-12-24T07:23:58;17.83;;;4.50;;
61741;SDS011;47650;49.848;9.620;2022-12-24T07:26:23;9.40;;;3.90;;
61741;SDS011;47650;49.848;9.620;2022-12-24T07:28:49;16.67;;;4.38;;
61741;SDS011;47650;49.848;9.620;2022-12-24T07:31:15;13.88;;;3.67;;
61741;SDS011;47650;49.848;9.620;2022-12-24T07:33:41;17.20;;;3.70;;
61741;SDS011;47650;49.848;9.620;2022-12-24T07:36:07;12.40;;;2.90;;
61741;SDS011;47650;49.848;9.620;2022-12-24T07:38:38;14.63;;;3.20;;
61741;SDS011;47650;49.848;9.620;2022-12-24T07:41:06;18.63;;;4.38;;
61741;SDS011;47650;49.848;9.620;2022-12-24T07:43:32;18.10;;;4.75;;
61741;SDS011;47650;49.848;9.620;2022-12-24T07:45:58;15.02;;;3.22;;
61741;SDS011;47650;49.848;9.620;2022-12-24T07:48:26;15.18;;;3.75;;
61741;SDS011;47650;49.848;9.620;2022-12-24T07:50:53;15.55;;;4.05;;
61741;SDS011;47650;49.848;9.620;2022-12-24T07:53:19;13.23;;;3.42;;
61741;SDS011;47650;49.848;9.620;2022-12-24T07:55:44;18.63;;;4.65;;
61741;SDS011;47650;49.848;9.620;2022-12-24T07:58:10;11.90;;;3.08;;
61741;SDS011;47650;49.848;9.620;2022-12-24T08:00:36;15.23;;;4.20;;
61741;SDS011;47650;49.848;9.620;2022-12-24T08:03:03;16.83;;;4.13;;
61741;SDS011;47650;49.848;9.620;2022-12-24T08:05:39;16.70;;;3.42;;
61741;SDS011;47650;49.848;9.620;2022-12-24T08:08:04;20.67;;;5.50;;
61741;SDS011;47650;49.848;9.620;2022-12-24T08:10:30;15.98;;;3.80;;
61741;SDS011;47650;49.848;9.620;2022-12-24T08:12:56;15.10;;;3.30;;
61741;SDS011;47650;49.848;9.620;2022-12-24T08:15:22;19.77;;;4.40;;
61741;SDS011;47650;49.848;9.620;2022-12-24T08:17:47;15.95;;;3.67;;
61741;SDS011;47650;49.848;9.620;2022-12-24T08:20:13;14.80;;;4.60;;
61741;SDS011;47650;49.848;9.620;2022-12-24T08:22:43;17.40;;;3.67;;
61741;SDS011;47650;49.848;9.620;2022-12-24T08:25:08;14.70;;;4.18;;
61741;SDS011;47650;49.848;9.620;2022-12-24T08:27:36;13.13;;;4.20;;
61741;SDS011;47650;49.848;9.620;2022-12-24T08:30:03;18.88;;;4.32;;
61741;SDS011;47650;49.848;9.620;2022-12-24T08:32:28;20.38;;;4.55;;
61741;SDS011;47650;49.848;9.620;2022-12-24T08:34:54;17.08;;;3.58;;
61741;SDS011;47650;49.848;9.620;2022-12-24T08:37:19;16.92;;;4.85;;
61741;SDS011;47650;49.848;9.620;2022-12-24T08:39:47;17.92;;;4.25;;
61741;SDS011;47650;49.848;9.620;2022-12-24T08:42:22;17.05;;;3.75;;
61741;SDS011;47650;49.848;9.620;2022-12-24T08:44:48;15.98;;;3.75;;
61741;SDS011;47650;49.848;9.620;2022-12-24T08:47:13;18.05;;;3.83;;
61741;SDS011;47650;49.848;9.620;2022-12-24T08:49:38;19.98;;;4.40;;
61741;SDS011;47650;49.848;9.620;2022-12-24T08:52:04;19.58;;;5.13;;
61741;SDS011;47650;49.848;9.620;2022-12-24T08:54:30;18.63;;;4.13;;
61741;SDS011;47650;49.848;9.620;2022-12-24T08:56:55;17.85;;;3.75;;
61741;SDS011;47650;49.848;9.620;2022-12-24T08:59:21;17.17;;;5.63;;
61741;SDS011;47650;49.848;9.620;2022-12-24T09:01:46;20.73;;;4.75;;
61741;SDS011;47650;49.848;9.620;2022-12-24T09:04:12;17.33;;;3.78;;
61741;SDS011;47650;49.848;9.620;2022-12-24T09:06:37;15.13;;;3.20;;
61741;SDS011;47650;49.848;9.620;2022-12-24T09:09:03;15.25;;;4.22;;
61741;SDS011;47650;49.848;9.620;2022-12-24T09:11:29;18.58;;;4.65;;
61741;SDS011;47650;49.848;9.620;2022-12-24T09:13:54;16.00;;;4.32;;
61741;SDS011;47650;49.848;9.620;2022-12-24T09:16:20;12.85;;;3.83;;
61741;SDS011;47650;49.848;9.620;2022-12-24T09:18:45;12.77;;;3.30;;
61741;SDS011;47650;49.848;9.620;2022-12-24T09:21:12;18.10;;;4.45;;
61741;SDS011;47650;49.848;9.620;2022-12-24T09:23:42;17.20;;;3.85;;
61741;SDS011;47650;49.848;9.620;2022-12-24T09:26:09;23.13;;;4.50;;
61741;SDS011;47650;49.848;9.620;2022-12-24T09:28:38;18.02;;;4.57;;
61741;SDS011;47650;49.848;9.620;2022-12-24T09:31:04;20.17;;;5.43;;
61741;SDS011;47650;49.848;9.620;2022-12-24T09:33:31;15.77;;;3.58;;
61741;SDS011;47650;49.848;9.620;2022-12-24T09:35:59;17.77;;;4.68;;
61741;SDS011;47650;49.848;9.620;2022-12-24T09:38:26;16.08;;;3.90;;
61741;SDS011;47650;49.848;9.620;2022-12-24T09:40:52;12.82;;;3.95;;
61741;SDS011;47650;49.848;9.620;2022-12-24T09:43:23;17.45;;;3.90;;
61741;SDS011;47650;49.848;9.620;2022-12-24T09:46:12;15.93;;;4.35;;
61741;SDS011;47650;49.848;9.620;2022-12-24T09:48:39;16.08;;;4.38;;
61741;SDS011;47650;49.848;9.620;2022-12-24T09:51:43;20.52;;;4.68;;
61741;SDS011;47650;49.848;9.620;2022-12-24T09:56:46;21.75;;;3.38;;
61741;SDS011;47650;49.848;9.620;2022-12-24T09:59:16;25.60;;;6.93;;
61741;SDS011;47650;49.848;9.620;2022-12-24T10:01:45;16.35;;;4.25;;
61741;SDS011;47650;49.848;9.620;2022-12-24T10:04:13;21.23;;;6.43;;
61741;SDS011;47650;49.848;9.620;2022-12-24T10:09:44;20.42;;;4.40;;
61741;SDS011;47650;49.848;9.620;2022-12-24T10:12:35;21.58;;;6.20;;
61741;SDS011;47650;49.848;9.620;2022-12-24T10:23:34;21.90;;;5.07;;
61741;SDS011;47650;49.848;9.620;2022-12-24T10:28:53;20.73;;;5.22;;
61741;SDS011;47650;49.848;9.620;2022-12-24T10:31:28;17.50;;;4.72;;
61741;SDS011;47650;49.848;9.620;2022-12-24T10:34:03;17.67;;;5.03;;
61741;SDS011;47650;49.848;9.620;2022-12-24T10:36:37;17.77;;;4.68;;
61741;SDS011;47650;49.848;9.620;2022-12-24T10:39:02;19.17;;;4.40;;
61741;SDS011;47650;49.848;9.620;2022-12-24T10:41:27;14.85;;;4.55;;
61741;SDS011;47650;49.848;9.620;2022-12-24T10:43:55;19.73;;;5.07;;
61741;SDS011;47650;49.848;9.620;2022-12-24T10:46:28;18.85;;;5.18;;
61741;SDS011;47650;49.848;9.620;2022-12-24T10:52:11;19.88;;;4.40;;
61741;SDS011;47650;49.848;9.620;2022-12-24T10:55:03;16.45;;;5.22;;
61741;SDS011;47650;49.848;9.620;2022-12-24T10:57:55;17.23;;;4.95;;
61741;SDS011;47650;49.848;9.620;2022-12-24T11:00:25;16.60;;;5.63;;
61741;SDS011;47650;49.848;9.620;2022-12-24T11:03:04;18.25;;;4.00;;
61741;SDS011;47650;49.848;9.620;2022-12-24T11:06:00;14.63;;;3.90;;
61741;SDS011;47650;49.848;9.620;2022-12-24T11:08:27;19.55;;;5.00;;
61741;SDS011;47650;49.848;9.620;2022-12-24T11:10:53;18.45;;;3.88;;
61741;SDS011;47650;49.848;9.620;2022-12-24T11:13:35;11.63;;;3.03;;
61741;SDS011;47650;49.848;9.620;2022-12-24T11:21:18;17.60;;;3.75;;
61741;SDS011;47650;49.848;9.620;2022-12-24T11:23:50;15.20;;;4.13;;
61741;SDS011;47650;49.848;9.620;2022-12-24T11:26:22;17.30;;;4.32;;
61741;SDS011;47650;49.848;9.620;2022-12-24T11:31:29;18.50;;;4.43;;
61741;SDS011;47650;49.848;9.620;2022-12-24T11:33:56;16.13;;;4.22;;
61741;SDS011;47650;49.848;9.620;2022-12-24T11:36:22;16.23;;;4.43;;
61741;SDS011;47650;49.848;9.620;2022-12-24T11:38:53;17.98;;;3.85;;
61741;SDS011;47650;49.848;9.620;2022-12-24T11:41:20;9.88;;;2.53;;
61741;SDS011;47650;49.848;9.620;2022-12-24T11:43:47;15.55;;;3.60;;
61741;SDS011;47650;49.848;9.620;2022-12-24T11:46:17;12.80;;;3.45;;
61741;SDS011;47650;49.848;9.620;2022-12-24T11:51:39;16.98;;;3.95;;
61741;SDS011;47650;49.848;9.620;2022-12-24T11:54:23;16.38;;;4.40;;
61741;SDS011;47650;49.848;9.620;2022-12-24T11:56:52;14.27;;;3.10;;
61741;SDS011;47650;49.848;9.620;2022-12-24T11:59:27;14.52;;;4.15;;
61741;SDS011;47650;49.848;9.620;2022-12-24T12:01:57;15.50;;;4.40;;
61741;SDS011;47650;49.848;9.620;2022-12-24T12:04:32;15.35;;;3.95;;
61741;SDS011;47650;49.848;9.620;2022-12-24T12:07:10;12.57;;;3.13;;
61741;SDS011;47650;49.848;9.620;2022-12-24T12:09:46;21.48;;;5.07;;
61741;SDS011;47650;49.848;9.620;2022-12-24T12:12:23;15.60;;;3.90;;
61741;SDS011;47650;49.848;9.620;2022-12-24T12:14:52;11.82;;;3.53;;
61741;SDS011;47650;49.848;9.620;2022-12-24T12:23:01;21.48;;;4.90;;
61741;SDS011;47650;49.848;9.620;2022-12-24T12:28:14;14.25;;;3.40;;
61741;SDS011;47650;49.848;9.620;2022-12-24T12:30:53;16.15;;;3.90;;
61741;SDS011;47650;49.848;9.620;2022-12-24T12:33:27;27.13;;;4.75;;
61741;SDS011;47650;49.848;9.620;2022-12-24T12:35:59;11.18;;;3.22;;
61741;SDS011;47650;49.848;9.620;2022-12-24T12:38:28;19.50;;;4.47;;
61741;SDS011;47650;49.848;9.620;2022-12-24T12:49:31;16.60;;;4.35;;
61741;SDS011;47650;49.848;9.620;2022-12-24T12:55:12;19.83;;;5.00;;
61741;SDS011;47650;49.848;9.620;2022-12-24T12:58:00;15.05;;;3.95;;
61741;SDS011;47650;49.848;9.620;2022-12-24T13:00:30;17.00;;;4.88;;
61741;SDS011;47650;49.848;9.620;2022-12-24T13:05:51;21.23;;;5.13;;
61741;SDS011;47650;49.848;9.620;2022-12-24T13:22:15;20.77;;;5.00;;
61741;SDS011;47650;49.848;9.620;2022-12-24T13:24:48;23.35;;;5.60;;
61741;SDS011;47650;49.848;9.620;2022-12-24T13:27:16;15.23;;;3.78;;
61741;SDS011;47650;49.848;9.620;2022-12-24T13:29:54;13.20;;;4.22;;
61741;SDS011;47650;49.848;9.620;2022-12-24T13:32:47;19.98;;;4.35;;
61741;SDS011;47650;49.848;9.620;2022-12-24T13:37:46;19.63;;;4.85;;
61741;SDS011;47650;49.848;9.620;2022-12-24T13:40:13;19.90;;;4.88;;
61741;SDS011;47650;49.848;9.620;2022-12-24T13:48:01;19.02;;;6.32;;
61741;SDS011;47650;49.848;9.620;2022-12-24T13:50:43;24.95;;;6.22;;
61741;SDS011;47650;49.848;9.620;2022-12-24T13:53:25;21.75;;;6.35;;
61741;SDS011;47650;49.848;9.620;2022-12-24T13:58:35;24.25;;;6.65;;
61741;SDS011;47650;49.848;9.620;2022-12-24T14:01:11;24.63;;;6.82;;
61741;SDS011;47650;49.848;9.620;2022-12-24T14:03:41;24.67;;;6.80;;
61741;SDS011;47650;49.848;9.620;2022-12-24T14:06:09;24.65;;;6.82;;
61741;SDS011;47650;49.848;9.620;2022-12-24T14:08:57;20.80;;;5.45;;
61741;SDS011;47650;49.848;9.620;2022-12-24T14:12:15;22.15;;;5.78;;
61741;SDS011;47650;49.848;9.620;2022-12-24T14:14:31;24.15;;;6.85;;
61741;SDS011;47650;49.848;9.620;2022-12-24T14:17:07;18.80;;;5.22;;
61741;SDS011;47650;49.848;9.620;2022-12-24T14:19:43;24.13;;;5.95;;
61741;SDS011;47650;49.848;9.620;2022-12-24T14:25:14;25.80;;;6.53;;
61741;SDS011;47650;49.848;9.620;2022-12-24T14:27:46;29.25;;;7.10;;
61741;SDS011;47650;49.848;9.620;2022-12-24T14:32:42;20.08;;;4.95;;
61741;SDS011;47650;49.848;9.620;2022-12-24T14:37:40;25.53;;;4.83;;
61741;SDS011;47650;49.848;9.620;2022-12-24T14:40:14;22.20;;;5.47;;
61741;SDS011;47650;49.848;9.620;2022-12-24T14:53:59;21.55;;;4.50;;
61741;SDS011;47650;49.848;9.620;2022-12-24T14:56:42;14.77;;;3.83;;
61741;SDS011;47650;49.848;9.620;2022-12-24T14:59:14;14.93;;;3.63;;
61741;SDS011;47650;49.848;9.620;2022-12-24T15:01:40;19.98;;;4.93;;
61741;SDS011;47650;49.848;9.620;2022-12-24T15:06:36;19.17;;;4.47;;
61741;SDS011;47650;49.848;9.620;2022-12-24T15:09:03;14.50;;;4.30;;
61741;SDS011;47650;49.848;9.620;2022-12-24T15:11:36;15.48;;;4.55;;
61741;SDS011;47650;49.848;9.620;2022-12-24T15:14:02;17.63;;;4.85;;
61741;SDS011;47650;49.848;9.620;2022-12-24T15:16:31;17.60;;;4.88;;
61741;SDS011;47650;49.848;9.620;2022-12-24T15:19:03;19.05;;;5.40;;
61741;SDS011;47650;49.848;9.620;2022-12-24T15:21:32;17.05;;;5.68;;
61741;SDS011;47650;49.848;9.620;2022-12-24T15:24:01;19.55;;;5.55;;
61741;SDS011;47650;49.848;9.620;2022-12-24T15:26:29;23.85;;;5.75;;
61741;SDS011;47650;49.848;9.620;2022-12-24T15:28:57;20.73;;;6.72;;
61741;SDS011;47650;49.848;9.620;2022-12-24T15:31:24;20.38;;;6.90;;
61741;SDS011;47650;49.848;9.620;2022-12-24T15:33:53;19.13;;;6.07;;
61741;SDS011;47650;49.848;9.620;2022-12-24T15:36:37;22.23;;;7.38;;
61741;SDS011;47650;49.848;9.620;2022-12-24T15:39:04;19.25;;;6.80;;
61741;SDS011;47650;49.848;9.620;2022-12-24T15:41:39;25.73;;;7.38;;
61741;SDS011;47650;49.848;9.620;2022-12-24T15:47:00;20.88;;;6.03;;
61741;SDS011;47650;49.848;9.620;2022-12-24T15:49:28;23.85;;;6.57;;
61741;SDS011;47650;49.848;9.620;2022-12-24T15:52:07;21.88;;;5.53;;
61741;SDS011;47650;49.848;9.620;2022-12-24T15:54:42;24.10;;;6.45;;
61741;SDS011;47650;49.848;9.620;2022-12-24T15:57:13;23.30;;;6.60;;
61741;SDS011;47650;49.848;9.620;2022-12-24T15:59:53;27.70;;;8.20;;
61741;SDS011;47650;49.848;9.620;2022-12-24T16:04:48;21.38;;;7.57;;
61741;SDS011;47650;49.848;9.620;2022-12-24T16:07:23;23.55;;;7.93;;
61741;SDS011;47650;49.848;9.620;2022-12-24T16:09:49;23.00;;;7.60;;
61741;SDS011;47650;49.848;9.620;2022-12-24T16:12:22;25.42;;;8.52;;
61741;SDS011;47650;49.848;9.620;2022-12-24T16:14:55;23.17;;;8.48;;
61741;SDS011;47650;49.848;9.620;2022-12-24T16:19:54;28.77;;;8.77;;
61741;SDS011;47650;49.848;9.620;2022-12-24T16:22:23;26.00;;;9.27;;
61741;SDS011;47650;49.848;9.620;2022-12-24T16:24:59;27.67;;;8.85;;
61741;SDS011;47650;49.848;9.620;2022-12-24T16:27:46;27.20;;;9.13;;
61741;SDS011;47650;49.848;9.620;2022-12-24T16:30:13;22.58;;;8.43;;
61741;SDS011;47650;49.848;9.620;2022-12-24T16:32:38;24.40;;;9.43;;
61741;SDS011;47650;49.848;9.620;2022-12-24T16:35:06;25.38;;;8.93;;
61741;SDS011;47650;49.848;9.620;2022-12-24T16:37:44;25.88;;;8.68;;
61741;SDS011;47650;49.848;9.620;2022-12-24T16:40:13;26.95;;;8.23;;
61741;SDS011;47650;49.848;9.620;2022-12-24T16:42:39;26.05;;;8.60;;
61741;SDS011;47650;49.848;9.620;2022-12-24T16:45:24;25.70;;;9.43;;
61741;SDS011;47650;49.848;9.620;2022-12-24T16:47:52;22.77;;;8.70;;
61741;SDS011;47650;49.848;9.620;2022-12-24T16:50:21;29.08;;;11.73;;
61741;SDS011;47650;49.848;9.620;2022-12-24T16:52:49;24.10;;;11.38;;
61741;SDS011;47650;49.848;9.620;2022-12-24T16:55:14;27.88;;;11.00;;
61741;SDS011;47650;49.848;9.620;2022-12-24T16:57:40;23.33;;;10.30;;
61741;SDS011;47650;49.848;9.620;2022-12-24T17:00:07;20.75;;;10.70;;
61741;SDS011;47650;49.848;9.620;2022-12-24T17:02:38;40.58;;;21.27;;
61741;SDS011;47650;49.848;9.620;2022-12-24T17:05:03;20.02;;;9.07;;
61741;SDS011;47650;49.848;9.620;2022-12-24T17:07:29;42.45;;;21.60;;